Time;durP1;ratioP1;P1;durP2;ratioP2;P2;SDS_P1;SDS_P2;PMS_P1;PMS_P2;Temp;Humidity;BMP_temperature;BMP_pressure;BME280_temperature;BME280_humidity;BME280_pressure;Samples;Min_cycle;Max_cycle;Signal;HPM_P1;HPM_P2
2024/04/11 00:02:07;;;;;;;3.00;1.70;;;;;;;4.55;65.70;102498.16;105854;1308;25099;-57
2024/04/11 00:04:33;;;;;;;2.50;1.30;;;;;;;4.42;65.92;102500.85;105630;1307;23312;-57
2024/04/11 00:06:58;;;;;;;1.50;0.80;;;;;;;4.30;65.98;102508.08;105725;1307;22806;-58
2024/04/11 00:09:24;;;;;;;4.80;2.00;;;;;;;4.25;66.30;102510.92;105967;1291;23748;-57
2024/04/11 00:11:49;;;;;;;5.20;2.10;;;;;;;4.18;66.37;102509.81;106085;1310;22609;-59
2024/04/11 00:14:14;;;;;;;1.00;0.90;;;;;;;4.13;66.00;102507.42;105988;1305;24321;-57
2024/04/11 00:16:40;;;;;;;1.40;0.80;;;;;;;4.09;65.92;102509.80;105932;1304;22570;-58
2024/04/11 00:19:05;;;;;;;1.30;0.90;;;;;;;4.04;66.15;102510.46;105954;1294;22605;-57
2024/04/11 00:21:31;;;;;;;1.20;1.10;;;;;;;4.03;65.57;102506.83;105856;1311;22587;-58
2024/04/11 00:23:56;;;;;;;2.10;1.20;;;;;;;3.98;65.99;102503.40;105853;1310;22564;-59
2024/04/11 00:26:23;;;;;;;2.10;1.30;;;;;;;3.89;66.76;102503.20;105999;1310;22625;-57
2024/04/11 00:28:49;;;;;;;4.20;2.00;;;;;;;3.82;66.53;102496.25;105914;1289;22634;-57
2024/04/11 00:31:15;;;;;;;1.90;1.30;;;;;;;3.78;66.75;102493.34;106073;1310;22576;-59
2024/04/11 00:33:54;;;;;;;2.10;1.50;;;;;;;3.76;66.76;102492.41;106103;1287;22561;-57
2024/04/11 00:36:24;;;;;;;4.00;2.20;;;;;;;3.79;66.98;102493.73;105973;1310;22613;-57
2024/04/11 00:38:51;;;;;;;3.40;1.90;;;;;;;3.80;66.93;102499.08;105990;1288;22739;-59
2024/04/11 00:41:17;;;;;;;4.00;2.40;;;;;;;3.80;66.88;102493.77;105973;1304;22628;-57
2024/04/11 00:43:43;;;;;;;2.70;2.30;;;;;;;3.81;66.93;102491.94;105978;1305;26685;-57
2024/04/11 00:46:09;;;;;;;5.60;2.60;;;;;;;3.81;66.96;102495.85;105743;1311;22858;-58
2024/04/11 00:48:36;;;;;;;;;;;;;;;3.80;67.16;102490.70;103785;1304;22596;-58
2024/04/11 00:51:03;;;;;;;5.60;2.70;;;;;;;3.80;67.54;102496.30;103872;1301;25379;-58
2024/04/11 00:53:30;;;;;;;4.50;2.90;;;;;;;3.75;67.40;102497.48;103876;1301;22699;-57
2024/04/11 00:55:56;;;;;;;2.90;2.10;;;;;;;3.69;67.32;102495.32;103824;1309;22682;-61
2024/04/11 00:58:22;;;;;;;3.60;2.10;;;;;;;3.60;67.33;102499.42;103786;1297;24113;-60
2024/04/11 01:00:48;;;;;;;4.70;2.60;;;;;;;3.52;67.52;102494.83;103760;1300;22690;-58
2024/04/11 01:03:15;;;;;;;5.70;3.20;;;;;;;3.47;67.67;102494.59;103798;1298;24310;-59
2024/04/11 01:05:41;;;;;;;5.80;3.60;;;;;;;3.42;67.86;102492.66;104324;1311;22614;-56
2024/04/11 01:08:07;;;;;;;3.40;2.70;;;;;;;3.39;67.51;102498.69;103838;1310;22615;-57
2024/04/11 01:10:37;;;;;;;2.50;2.00;;;;;;;3.39;67.08;102501.40;103825;1308;22571;-60
2024/04/11 01:13:05;;;;;;;5.30;2.30;;;;;;;3.36;67.24;102497.88;103890;1307;22558;-57
2024/04/11 01:15:34;;;;;;;7.90;3.40;;;;;;;3.32;67.62;102496.33;103833;1289;22560;-58
2024/04/11 01:18:00;;;;;;;6.00;4.10;;;;;;;3.28;67.71;102496.66;104123;1304;22544;-60
2024/04/11 01:20:26;;;;;;;5.00;3.90;;;;;;;3.27;67.73;102500.70;103781;1294;22578;-58
2024/04/11 01:22:52;;;;;;;8.30;5.10;;;;;;;3.26;67.99;102500.15;103782;1298;24133;-59
2024/04/11 01:25:18;;;;;;;3.70;3.30;;;;;;;3.24;68.02;102502.14;103782;1310;23975;-58
2024/04/11 01:27:44;;;;;;;8.00;5.50;;;;;;;3.19;67.95;102497.63;103808;1310;22636;-58
2024/04/11 01:30:11;;;;;;;36.40;8.50;;;;;;;3.14;68.20;102499.46;103711;1292;22646;-58
2024/04/11 01:32:37;;;;;;;7.60;5.90;;;;;;;3.12;68.17;102495.62;103969;1310;22567;-58
2024/04/11 01:35:03;;;;;;;5.30;4.00;;;;;;;3.12;68.10;102498.36;103926;1294;22708;-60
2024/04/11 01:37:29;;;;;;;2.50;2.30;;;;;;;3.11;68.27;102495.58;103844;1304;24293;-60
2024/04/11 01:39:58;;;;;;;3.20;2.60;;;;;;;3.06;68.07;102494.67;103818;1295;25308;-59
2024/04/11 01:42:23;;;;;;;3.30;2.80;;;;;;;3.06;67.49;102495.21;104202;1311;22773;-60
2024/04/11 01:44:49;;;;;;;8.30;2.80;;;;;;;3.10;67.83;102494.35;103761;1304;23055;-59
2024/04/11 01:47:15;;;;;;;2.30;2.10;;;;;;;3.09;67.71;102490.90;103812;1298;22564;-57
2024/04/11 01:49:41;;;;;;;4.20;2.80;;;;;;;3.08;67.82;102494.61;103797;1311;21995;-59
2024/04/11 01:52:09;;;;;;;5.20;3.30;;;;;;;3.05;67.97;102492.23;103850;1292;25697;-59
2024/04/11 01:54:41;;;;;;;12.90;4.30;;;;;;;3.02;68.16;102492.61;104032;1295;22755;-59
2024/04/11 01:57:08;;;;;;;6.20;4.60;;;;;;;2.99;68.47;102489.30;103985;1297;24408;-59
2024/04/11 01:59:33;;;;;;;3.60;3.10;;;;;;;2.97;68.20;102487.66;104356;1287;22609;-59
2024/04/11 02:01:59;;;;;;;5.40;2.60;;;;;;;2.92;68.19;102488.79;103767;1304;24290;-59
2024/04/11 02:04:30;;;;;;;4.30;3.40;;;;;;;2.86;68.48;102486.29;104104;1310;24251;-58
2024/04/11 02:06:59;;;;;;;3.90;3.00;;;;;;;2.81;68.46;102485.88;103883;1310;22556;-59
2024/04/11 02:09:27;;;;;;;5.40;4.40;;;;;;;2.78;68.57;102489.30;103872;1304;22619;-60
2024/04/11 02:11:53;;;;;;;4.40;3.30;;;;;;;2.78;68.88;102490.49;103735;1291;25456;-60
2024/04/11 02:14:22;;;;;;;5.50;3.80;;;;;;;2.75;68.70;102494.30;103770;1310;24288;-56
2024/04/11 02:16:50;;;;;;;5.00;3.70;;;;;;;2.78;68.60;102495.11;103709;1310;22659;-57
2024/04/11 02:19:16;;;;;;;3.70;2.90;;;;;;;2.79;68.52;102496.36;104161;1310;22590;-58
2024/04/11 02:21:42;;;;;;;4.80;4.20;;;;;;;2.79;68.59;102496.34;103809;1297;22637;-60
2024/04/11 02:24:16;;;;;;;6.50;4.40;;;;;;;2.79;68.80;102494.28;103856;1310;22560;-60
2024/04/11 02:26:47;;;;;;;6.60;4.70;;;;;;;2.80;68.84;102496.41;104077;1295;24352;-61
2024/04/11 02:29:17;;;;;;;8.40;5.60;;;;;;;2.84;68.92;102497.95;104191;1305;22699;-58
2024/04/11 02:31:43;;;;;;;7.00;5.20;;;;;;;2.86;69.17;102500.09;104304;1294;22560;-59
2024/04/11 02:34:09;;;;;;;6.00;4.80;;;;;;;2.83;68.87;102501.48;103779;1297;22592;-59
2024/04/11 02:36:34;;;;;;;6.20;4.50;;;;;;;2.77;68.86;102501.19;103737;1303;22605;-60
2024/04/11 02:39:01;;;;;;;5.30;4.70;;;;;;;2.75;68.82;102500.95;103989;1311;22613;-58
2024/04/11 02:41:27;;;;;;;8.00;5.30;;;;;;;2.75;69.00;102499.39;103502;1289;24509;-58
2024/04/11 02:43:55;;;;;;;6.20;5.20;;;;;;;2.75;68.98;102503.84;103636;1295;22627;-60
2024/04/11 02:46:21;;;;;;;5.60;4.40;;;;;;;2.76;69.31;102503.88;103970;1307;22679;-59
2024/04/11 02:48:47;;;;;;;6.80;5.50;;;;;;;2.75;69.14;102507.73;104067;1310;24290;-60
2024/04/11 02:51:14;;;;;;;7.40;4.30;;;;;;;2.72;69.07;102508.10;103822;1304;22751;-57
2024/04/11 02:53:40;;;;;;;7.80;4.90;;;;;;;2.69;69.14;102508.14;103620;1297;25676;-58
2024/04/11 02:56:09;;;;;;;4.70;4.20;;;;;;;2.69;68.87;102510.01;103692;1304;23327;-57
2024/04/11 02:58:36;;;;;;;7.50;5.50;;;;;;;2.72;69.23;102509.95;103736;1296;22826;-58
2024/04/11 03:01:09;;;;;;;7.40;5.50;;;;;;;2.74;69.35;102517.05;103609;1304;22564;-58
2024/04/11 03:03:35;;;;;;;7.10;5.40;;;;;;;2.72;69.44;102518.15;103725;1291;22826;-59
2024/04/11 03:06:12;;;;;;;5.80;5.10;;;;;;;2.70;69.46;102517.56;103648;1310;23174;-59
2024/04/11 03:08:40;;;;;;;;;;;;;;;2.69;69.46;102517.66;103727;1297;26013;-58
2024/04/11 03:11:09;;;;;;;8.80;6.60;;;;;;;2.69;69.54;102513.58;103881;1296;22786;-59
2024/04/11 03:13:36;;;;;;;8.50;6.00;;;;;;;2.70;69.64;102518.58;103586;1294;22672;-58
2024/04/11 03:16:02;;;;;;;12.00;6.00;;;;;;;2.71;69.50;102520.64;103786;1304;24252;-59
2024/04/11 03:18:28;;;;;;;8.10;5.30;;;;;;;2.74;69.47;102524.70;105238;1304;22519;-60
2024/04/11 03:20:54;;;;;;;7.10;5.50;;;;;;;2.75;69.34;102526.45;105905;1311;22558;-58
2024/04/11 03:23:21;;;;;;;9.90;6.40;;;;;;;2.74;69.38;102526.42;106101;1310;25417;-58
2024/04/11 03:25:47;;;;;;;9.30;6.30;;;;;;;2.74;69.67;102528.11;106054;1294;22776;-56
2024/04/11 03:28:14;;;;;;;7.30;5.60;;;;;;;2.74;69.62;102524.90;104979;1303;25547;-58
2024/04/11 03:30:41;;;;;;;9.00;6.20;;;;;;;2.77;69.82;102525.02;103823;1294;22600;-60
2024/04/11 03:33:06;;;;;;;17.40;5.70;;;;;;;2.78;70.03;102521.00;103775;1294;22607;-58
2024/04/11 03:35:32;;;;;;;8.60;5.60;;;;;;;2.75;69.82;102525.46;103765;1311;22576;-59
2024/04/11 03:37:58;;;;;;;10.40;6.20;;;;;;;2.69;69.97;102526.54;103546;1309;24232;-58
2024/04/11 03:40:23;;;;;;;7.20;6.00;;;;;;;2.63;70.09;102528.33;103702;1311;22619;-59
2024/04/11 03:42:49;;;;;;;6.50;5.70;;;;;;;2.60;70.12;102530.39;103680;1288;22634;-58
2024/04/11 03:45:22;;;;;;;6.40;5.60;;;;;;;2.59;69.89;102528.84;103749;1304;22557;-58
2024/04/11 03:47:48;;;;;;;9.10;5.00;;;;;;;2.60;70.17;102530.40;103741;1310;26644;-59
2024/04/11 03:50:14;;;;;;;8.10;6.10;;;;;;;2.61;70.20;102528.21;103871;1310;22568;-58
2024/04/11 03:52:40;;;;;;;8.10;6.10;;;;;;;2.59;69.48;102526.08;103762;1289;22591;-59
2024/04/11 03:55:08;;;;;;;7.70;5.30;;;;;;;2.53;69.72;102529.04;103655;1305;22563;-58
2024/04/11 03:57:35;;;;;;;5.90;4.40;;;;;;;2.47;69.64;102529.42;103484;1307;22612;-59
2024/04/11 04:00:07;;;;;;;4.20;3.50;;;;;;;2.40;69.89;102527.40;104102;1296;22572;-57
2024/04/11 04:02:36;;;;;;;4.50;4.10;;;;;;;2.39;69.33;102532.79;103936;1311;22914;-57
2024/04/11 04:05:03;;;;;;;6.20;4.20;;;;;;;2.40;69.88;102529.63;103778;1290;22635;-59
2024/04/11 04:07:28;;;;;;;;;;;;;;;2.39;70.23;102531.77;103737;1305;22534;-58
2024/04/11 04:09:58;;;;;;;4.80;3.80;;;;;;;2.39;70.57;102536.18;103778;1294;22557;-59
2024/04/11 04:12:24;;;;;;;4.90;4.50;;;;;;;2.38;70.14;102539.04;103757;1304;23859;-59
2024/04/11 04:14:53;;;;;;;3.90;3.20;;;;;;;2.40;70.43;102537.77;103650;1294;22956;-60
2024/04/11 04:17:19;;;;;;;6.30;4.80;;;;;;;2.42;70.28;102539.05;103843;1311;22613;-58
2024/04/11 04:19:45;;;;;;;5.80;4.80;;;;;;;2.47;70.30;102539.99;103727;1311;23058;-60
2024/04/11 04:22:13;;;;;;;5.40;4.10;;;;;;;2.49;70.28;102540.24;103688;1310;26567;-60
2024/04/11 04:24:39;;;;;;;5.30;4.40;;;;;;;2.51;70.95;102545.61;103764;1294;22706;-62
2024/04/11 04:27:06;;;;;;;5.90;5.30;;;;;;;2.54;70.70;102543.23;103813;1307;22587;-60
2024/04/11 04:29:33;;;;;;;6.30;5.10;;;;;;;2.58;70.77;102549.02;104424;1309;24173;-60
2024/04/11 04:31:58;;;;;;;4.70;4.30;;;;;;;2.61;70.69;102548.81;103890;1294;22554;-59
2024/04/11 04:34:25;;;;;;;5.30;4.70;;;;;;;2.63;70.74;102547.40;103626;1293;24250;-58
2024/04/11 04:36:50;;;;;;;6.00;4.60;;;;;;;2.67;70.85;102549.27;103674;1297;22718;-60
2024/04/11 04:39:16;;;;;;;5.00;4.40;;;;;;;2.70;70.89;102550.42;105613;1310;22501;-57
2024/04/11 04:41:45;;;;;;;5.60;4.40;;;;;;;2.74;70.91;102553.99;105748;1299;22578;-56
2024/04/11 04:44:11;;;;;;;5.20;4.60;;;;;;;2.75;70.97;102550.81;105540;1288;22612;-60
2024/04/11 04:46:37;;;;;;;;;;;;;;;2.78;70.57;102549.77;105684;1288;22562;-57
2024/04/11 04:49:09;;;;;;;6.00;4.20;;;;;;;2.87;70.65;102550.21;105500;1305;24112;-57
2024/04/11 04:51:36;;;;;;;9.70;5.40;;;;;;;2.94;70.95;102551.91;105645;1304;22859;-59
2024/04/11 04:54:02;;;;;;;;;;;;;;;3.04;71.13;102552.67;105825;1299;22558;-59
2024/04/11 04:56:34;;;;;;;7.10;5.10;;;;;;;3.13;71.53;102554.95;106891;1302;23687;-59
2024/04/11 04:58:59;;;;;;;7.40;5.40;;;;;;;3.23;71.52;102554.56;106563;1304;22739;-59
2024/04/11 05:01:26;;;;;;;6.30;4.80;;;;;;;3.34;71.28;102553.67;105926;1304;25381;-58
2024/04/11 05:03:58;;;;;;;8.80;6.30;;;;;;;3.43;71.60;102556.98;105349;1289;23862;-58
2024/04/11 05:06:23;;;;;;;8.00;5.50;;;;;;;3.53;71.58;102554.90;104993;1295;22555;-58
2024/04/11 05:08:53;;;;;;;10.30;6.60;;;;;;;3.62;71.48;102560.23;105182;1304;22571;-56
2024/04/11 05:11:21;;;;;;;8.60;7.50;;;;;;;3.74;71.94;102563.23;105107;1304;22638;-58
2024/04/11 05:13:49;;;;;;;10.70;7.40;;;;;;;3.85;72.08;102556.60;105158;1304;22665;-57
2024/04/11 05:16:19;;;;;;;9.90;8.00;;;;;;;4.01;72.07;102558.79;104921;1291;25445;-57
2024/04/11 05:18:46;;;;;;;10.00;7.30;;;;;;;4.19;72.79;102552.17;105161;1298;22519;-57
2024/04/11 05:21:19;;;;;;;9.30;7.60;;;;;;;4.35;73.02;102551.80;107403;1310;22273;-60
2024/04/11 05:23:44;;;;;;;12.70;7.80;;;;;;;4.51;74.08;102550.08;105083;1310;24372;-59
2024/04/11 05:26:14;;;;;;;7.70;6.80;;;;;;;4.71;73.64;102546.77;104431;1304;26920;-57
2024/04/11 05:28:44;;;;;;;8.90;7.80;;;;;;;4.90;72.86;102550.73;104721;1311;22565;-57
2024/04/11 05:31:14;;;;;;;11.50;8.00;;;;;;;5.06;73.36;102542.44;107473;1304;22301;-59
2024/04/11 05:33:41;;;;;;;12.40;8.30;;;;;;;5.23;73.70;102538.77;104837;1310;22584;-60
2024/04/11 05:36:12;;;;;;;;;;;;;;;5.43;72.81;102540.85;104756;1294;22606;-57
2024/04/11 05:38:41;;;;;;;12.40;8.30;;;;;;;5.63;73.45;102541.60;104606;1308;22558;-58
2024/04/11 05:41:11;;;;;;;11.40;7.30;;;;;;;5.90;73.95;102542.34;104539;1311;22570;-59
2024/04/11 05:43:39;;;;;;;11.70;7.60;;;;;;;6.21;73.47;102544.24;104494;1304;22697;-59
2024/04/11 05:46:05;;;;;;;12.20;7.80;;;;;;;6.53;75.02;102549.21;104815;1293;22519;-57
2024/04/11 05:48:31;;;;;;;11.50;8.70;;;;;;;6.86;74.47;102545.23;104568;1310;22516;-59
2024/04/11 05:50:58;;;;;;;11.40;8.40;;;;;;;7.17;74.16;102549.23;104335;1307;22716;-59
2024/04/11 05:53:24;;;;;;;11.00;7.90;;;;;;;7.46;73.79;102560.16;104556;1295;22730;-61
2024/04/11 05:55:51;;;;;;;13.30;7.40;;;;;;;7.74;74.30;102559.73;104454;1295;22612;-59
2024/04/11 05:58:19;;;;;;;7.90;6.20;;;;;;;7.97;74.23;102559.81;104506;1310;24991;-58
2024/04/11 06:00:49;;;;;;;7.80;6.70;;;;;;;8.20;74.30;102561.08;104486;1304;22663;-60
2024/04/11 06:03:18;;;;;;;12.30;6.50;;;;;;;8.41;74.01;102559.70;104560;1304;22551;-58
2024/04/11 06:05:46;;;;;;;8.30;6.00;;;;;;;8.68;74.03;102561.20;104415;1294;22581;-56
2024/04/11 06:08:12;;;;;;;14.20;7.10;;;;;;;8.89;74.06;102561.33;105077;1310;22712;-58
2024/04/11 06:10:38;;;;;;;10.40;6.30;;;;;;;9.07;73.52;102562.41;104672;1305;22601;-60
2024/04/11 06:13:03;;;;;;;10.70;6.50;;;;;;;9.31;73.36;102565.83;104658;1295;26739;-57
2024/04/11 06:15:29;;;;;;;10.10;5.70;;;;;;;9.58;73.40;102567.05;104667;1289;23319;-61
2024/04/11 06:17:55;;;;;;;10.70;6.20;;;;;;;9.88;73.45;102563.29;104764;1304;22765;-58
2024/04/11 06:20:24;;;;;;;9.30;6.60;;;;;;;10.07;73.29;102567.92;104545;1311;24277;-57
2024/04/11 06:22:55;;;;;;;11.40;6.30;;;;;;;10.18;73.14;102567.95;105222;1307;22574;-61
2024/04/11 06:25:25;;;;;;;11.40;6.00;;;;;;;10.38;72.95;102567.77;104846;1289;22512;-58
2024/04/11 06:27:52;;;;;;;11.00;5.60;;;;;;;10.58;72.78;102568.27;104716;1291;23934;-57
2024/04/11 06:30:19;;;;;;;11.30;5.90;;;;;;;10.73;72.49;102566.92;104799;1294;22638;-59
2024/04/11 06:32:47;;;;;;;9.80;5.60;;;;;;;10.87;72.16;102570.05;104810;1304;22528;-61
2024/04/11 06:35:16;;;;;;;12.20;5.30;;;;;;;11.03;72.11;102565.95;104242;1303;161749;-58
2024/04/11 06:37:44;;;;;;;13.00;5.10;;;;;;;11.19;71.79;102568.05;104247;1294;22628;-60
2024/04/11 06:40:13;;;;;;;7.90;4.70;;;;;;;11.33;71.14;102569.61;104797;1302;22585;-61
2024/04/11 06:42:48;;;;;;;8.20;4.50;;;;;;;11.46;70.75;102569.05;105901;1297;22597;-58
2024/04/11 06:45:23;;;;;;;8.70;4.10;;;;;;;11.63;71.18;102567.01;104478;1310;22611;-59
2024/04/11 06:47:55;;;;;;;8.10;3.90;;;;;;;11.89;71.32;102564.55;105435;1294;24373;-59
2024/04/11 06:50:22;;;;;;;6.60;3.80;;;;;;;12.12;70.19;102564.39;106390;1302;22572;-61
2024/04/11 06:52:48;;;;;;;7.80;3.50;;;;;;;12.39;69.64;102564.96;105067;1305;22524;-60
2024/04/11 06:55:14;;;;;;;4.60;3.20;;;;;;;12.56;68.66;102561.09;104801;1302;22578;-58
2024/04/11 06:57:43;;;;;;;4.60;3.10;;;;;;;12.82;69.47;102566.96;104677;1288;23579;-59
2024/04/11 07:00:14;;;;;;;5.10;3.30;;;;;;;13.00;67.87;102562.03;103428;1304;22966;-59
2024/04/11 07:02:44;;;;;;;7.60;3.30;;;;;;;13.08;66.99;102563.96;103820;1304;22600;-59
2024/04/11 07:05:13;;;;;;;5.30;3.30;;;;;;;13.15;66.59;102569.20;103517;1305;23414;-60
2024/04/11 07:07:54;;;;;;;6.70;3.50;;;;;;;13.16;66.22;102568.02;103450;1297;22602;-59
2024/04/11 07:10:25;;;;;;;9.60;3.20;;;;;;;13.20;66.11;102571.33;103334;1304;22632;-59
2024/04/11 07:12:52;;;;;;;7.00;3.10;;;;;;;13.40;66.86;102566.39;103395;1297;23001;-59
2024/04/11 07:15:18;;;;;;;3.80;2.50;;;;;;;13.65;65.94;102567.65;104649;1297;22703;-60
2024/04/11 07:17:56;;;;;;;5.10;2.50;;;;;;;13.80;63.31;102564.23;103477;1291;22887;-59
2024/04/11 07:20:25;;;;;;;3.50;2.20;;;;;;;14.07;63.77;102565.97;103500;1310;22681;-58
2024/04/11 07:22:55;;;;;;;4.80;2.50;;;;;;;14.34;63.96;102563.20;103456;1304;25463;-59
2024/04/11 07:25:35;;;;;;;7.30;2.60;;;;;;;14.60;62.13;102565.10;106717;1303;22602;-60
2024/04/11 07:28:04;;;;;;;3.90;2.20;;;;;;;14.94;59.84;102562.08;103301;1291;22615;-59
2024/04/11 07:30:29;;;;;;;5.00;2.40;;;;;;;15.29;60.83;102563.65;103346;1297;23719;-59
2024/04/11 07:32:56;;;;;;;3.80;2.50;;;;;;;15.74;59.86;102563.94;103316;1311;22557;-58
2024/04/11 07:35:26;;;;;;;4.80;2.20;;;;;;;15.98;61.09;102563.96;103428;1304;22597;-59
2024/04/11 07:37:58;;;;;;;4.30;2.30;;;;;;;16.40;59.74;102563.07;103384;1310;25543;-59
2024/04/11 07:40:32;;;;;;;9.00;2.80;;;;;;;16.42;55.82;102560.43;104484;1300;22573;-60
2024/04/11 07:43:06;;;;;;;3.80;2.20;;;;;;;16.70;56.73;102558.95;104960;1304;22568;-59
2024/04/11 07:45:40;;;;;;;5.80;2.10;;;;;;;16.80;55.88;102558.85;104625;1304;22821;-59
2024/04/11 07:48:09;;;;;;;4.00;2.10;;;;;;;17.27;56.45;102560.19;106192;1292;23004;-60
2024/04/11 07:50:35;;;;;;;4.90;2.10;;;;;;;17.67;56.30;102557.20;104801;1304;22559;-60
2024/04/11 07:53:02;;;;;;;8.60;2.20;;;;;;;18.10;52.66;102557.08;104318;1304;22616;-61
2024/04/11 07:55:28;;;;;;;;;;;;;;;18.33;53.18;102557.00;104655;1312;22669;-60
2024/04/11 07:57:53;;;;;;;7.70;2.10;;;;;;;18.89;54.71;102560.00;103503;1292;23094;-59
2024/04/11 08:00:27;;;;;;;4.60;2.00;;;;;;;19.54;51.42;102564.23;104230;1310;22769;-61
2024/04/11 08:02:56;;;;;;;2.70;1.60;;;;;;;19.55;48.09;102556.52;104519;1310;22560;-59
2024/04/11 08:05:25;;;;;;;3.20;1.90;;;;;;;20.30;48.30;102550.85;104374;1304;22549;-60
2024/04/11 08:07:53;;;;;;;5.20;2.50;;;;;;;21.41;49.18;102551.20;105281;1288;22505;-60
2024/04/11 08:10:27;;;;;;;4.70;1.90;;;;;;;21.84;44.83;102550.23;105534;1304;22574;-60
2024/04/11 08:12:52;;;;;;;5.20;2.30;;;;;;;22.06;44.69;102551.08;105710;1304;22609;-60
2024/04/11 08:15:19;;;;;;;6.10;2.10;;;;;;;22.28;44.50;102548.58;104763;1311;22570;-59
2024/04/11 08:17:47;;;;;;;3.10;2.00;;;;;;;22.36;43.06;102545.85;104985;1289;22594;-59
2024/04/11 08:20:13;;;;;;;5.50;2.30;;;;;;;22.60;42.52;102549.57;107459;1310;22572;-59
2024/04/11 08:22:43;;;;;;;3.30;1.90;;;;;;;23.00;42.75;102548.98;105218;1309;22506;-59
2024/04/11 08:25:14;;;;;;;2.50;1.90;;;;;;;23.21;42.54;102551.33;105893;1302;23114;-59
2024/04/11 08:27:43;;;;;;;5.30;2.60;;;;;;;23.98;43.15;102543.52;105151;1304;22520;-60
2024/04/11 08:30:09;;;;;;;3.70;1.90;;;;;;;24.12;37.91;102540.80;103449;1294;22614;-59
2024/04/11 08:32:35;;;;;;;3.80;1.90;;;;;;;24.15;38.48;102542.79;103439;1304;22570;-62
2024/04/11 08:35:01;;;;;;;3.60;1.90;;;;;;;23.70;38.60;102546.24;104211;1304;22556;-60
2024/04/11 08:37:28;;;;;;;5.10;2.00;;;;;;;23.55;38.10;102547.37;103551;1304;22659;-60
2024/04/11 08:39:54;;;;;;;4.20;2.30;;;;;;;23.08;37.77;102545.33;103644;1291;22736;-60
2024/04/11 08:42:20;;;;;;;;;;;;;;;23.30;38.00;102548.01;103780;1307;22573;-61
2024/04/11 08:44:47;;;;;;;4.80;2.00;;;;;;;23.30;37.93;102542.90;103652;1304;24239;-60
2024/04/11 08:47:14;;;;;;;4.10;1.90;;;;;;;23.42;37.89;102544.02;103609;1294;22698;-60
2024/04/11 08:49:40;;;;;;;2.60;1.70;;;;;;;23.57;37.43;102539.04;103526;1294;22610;-60
2024/04/11 08:52:06;;;;;;;4.60;1.70;;;;;;;23.48;36.30;102545.20;103539;1311;22558;-61
2024/04/11 08:54:33;;;;;;;2.90;1.50;;;;;;;22.88;35.40;102551.34;103515;1301;24984;-61
2024/04/11 08:56:58;;;;;;;3.10;1.30;;;;;;;22.56;35.53;102546.16;103734;1303;22576;-60
2024/04/11 08:59:25;;;;;;;4.00;1.50;;;;;;;22.34;35.68;102546.98;103619;1304;25113;-60
2024/04/11 09:01:50;;;;;;;;;;;;;;;22.26;36.26;102543.73;104195;1308;22568;-58
2024/04/11 09:04:17;;;;;;;3.80;1.80;;;;;;;22.04;36.66;102541.84;103715;1310;22557;-61
2024/04/11 09:06:42;;;;;;;1.60;1.30;;;;;;;22.16;36.40;102541.61;103636;1304;24232;-60
2024/04/11 09:09:15;;;;;;;3.70;1.20;;;;;;;21.98;36.08;102538.16;103677;1289;22668;-60
2024/04/11 09:11:44;;;;;;;2.90;1.90;;;;;;;21.61;35.92;102538.48;103492;1304;22604;-59
2024/04/11 09:14:14;;;;;;;5.20;2.10;;;;;;;20.94;36.59;102545.40;103592;1307;24796;-59
2024/04/11 09:16:39;;;;;;;4.50;1.70;;;;;;;20.60;36.33;102538.48;103573;1311;22584;-60
2024/04/11 09:19:10;;;;;;;5.30;1.60;;;;;;;20.53;36.81;102539.90;103584;1289;22571;-60
2024/04/11 09:21:46;;;;;;;7.40;1.70;;;;;;;20.83;36.76;102540.46;103663;1303;25336;-60
2024/04/11 09:24:23;;;;;;;3.60;1.20;;;;;;;20.98;35.42;102539.48;103609;1302;25319;-60
2024/04/11 09:26:48;;;;;;;3.90;1.50;;;;;;;20.38;36.19;102533.98;103649;1305;22553;-59
2024/04/11 09:29:17;;;;;;;3.60;1.60;;;;;;;20.87;36.01;102532.46;103580;1288;24269;-60
2024/04/11 09:31:43;;;;;;;2.90;1.30;;;;;;;21.80;35.23;102526.27;103562;1311;22604;-61
2024/04/11 09:34:13;;;;;;;6.00;1.40;;;;;;;21.47;34.31;102529.77;103280;1298;22570;-59
2024/04/11 09:37:04;;;;;;;2.40;0.90;;;;;;;21.40;34.43;102531.60;104085;1311;22574;-60
2024/04/11 09:39:45;;;;;;;1.90;1.50;;;;;;;20.71;34.08;102532.20;105287;1289;22530;-61
2024/04/11 09:42:18;;;;;;;3.40;1.70;;;;;;;21.33;34.30;102529.15;105510;1304;23170;-59
2024/04/11 09:44:48;;;;;;;1.90;1.50;;;;;;;22.26;33.63;102524.57;105778;1297;22665;-60
2024/04/11 09:47:18;;;;;;;4.90;1.80;;;;;;;23.01;32.52;102524.66;106241;1307;24104;-59
2024/04/11 09:49:53;;;;;;;3.30;1.80;;;;;;;23.62;32.11;102528.43;106199;1289;22626;-59
2024/04/11 09:52:27;;;;;;;3.80;1.90;;;;;;;23.40;31.05;102525.95;106256;1304;23044;-60
2024/04/11 09:54:55;;;;;;;2.90;1.80;;;;;;;23.86;31.67;102510.70;106297;1304;22568;-60
2024/04/11 09:57:24;;;;;;;2.30;1.40;;;;;;;24.54;31.31;102506.36;105226;1310;22593;-62
2024/04/11 09:59:55;;;;;;;3.20;1.80;;;;;;;25.19;30.65;102514.50;105466;1288;22261;-61
2024/04/11 10:02:24;;;;;;;3.00;1.30;;;;;;;24.33;29.19;102519.76;105652;1304;22610;-61
2024/04/11 10:05:04;;;;;;;4.30;1.40;;;;;;;23.27;30.57;102520.88;105661;1297;22572;-58
2024/04/11 10:07:41;;;;;;;2.80;2.00;;;;;;;22.26;29.86;102508.54;105560;1304;22576;-59
2024/04/11 10:10:18;;;;;;;2.30;1.60;;;;;;;22.39;30.42;102501.05;106837;1289;22577;-59
2024/04/11 10:12:48;;;;;;;2.80;1.70;;;;;;;24.09;29.60;102503.38;105148;1310;22558;-58
2024/04/11 10:15:21;;;;;;;3.20;1.30;;;;;;;24.58;28.13;102504.93;105588;1298;22625;-59
2024/04/11 10:18:03;;;;;;;5.30;2.00;;;;;;;24.26;29.34;102502.14;105314;1297;22597;-59
2024/04/11 10:21:02;;;;;;;3.20;1.80;;;;;;;24.49;28.86;102505.38;105016;1288;24967;-57
2024/04/11 10:23:37;;;;;;;2.10;1.20;;;;;;;24.76;27.88;102505.72;104995;1310;22528;-60
2024/04/11 10:26:14;;;;;;;2.30;1.40;;;;;;;25.23;28.21;102512.20;103954;1304;25978;-60
2024/04/11 10:28:51;;;;;;;2.70;1.60;;;;;;;26.09;29.35;102510.41;104017;1289;25107;-61
2024/04/11 10:31:25;;;;;;;1.30;1.20;;;;;;;26.96;26.20;102498.67;103957;1292;24173;-60
2024/04/11 10:34:10;;;;;;;3.20;1.40;;;;;;;26.92;26.98;102499.08;104002;1309;22594;-60
2024/04/11 10:36:42;;;;;;;4.60;1.90;;;;;;;26.23;25.50;102511.98;104164;1310;22554;-61
2024/04/11 10:39:08;;;;;;;4.00;1.60;;;;;;;26.11;26.54;102497.04;104128;1305;22635;-59
2024/04/11 10:41:35;;;;;;;4.70;1.80;;;;;;;26.16;26.15;102494.15;104088;1294;24419;-60
2024/04/11 10:44:05;;;;;;;3.90;1.80;;;;;;;26.20;26.81;102492.68;104054;1311;22605;-59
2024/04/11 10:46:33;;;;;;;13.10;2.00;;;;;;;27.02;26.85;102496.94;104175;1304;22700;-60
2024/04/11 10:49:12;;;;;;;5.00;1.70;;;;;;;26.25;26.77;102484.11;103821;1304;26376;-61
2024/04/11 10:51:41;;;;;;;5.20;2.30;;;;;;;25.31;26.79;102487.72;104396;1310;23956;-61
2024/04/11 10:54:10;;;;;;;2.30;1.40;;;;;;;23.56;28.52;102485.52;103813;1305;23787;-61
2024/04/11 10:56:41;;;;;;;6.10;2.20;;;;;;;23.56;29.13;102476.37;103529;1301;22557;-61
2024/04/11 10:59:22;;;;;;;4.30;1.50;;;;;;;24.74;28.95;102479.52;103971;1309;22563;-62
2024/04/11 11:02:09;;;;;;;2.30;1.50;;;;;;;25.40;27.06;102475.35;103405;1294;22590;-62
2024/04/11 11:04:37;;;;;;;3.40;1.80;;;;;;;24.81;26.96;102483.63;103833;1311;24301;-62
2024/04/11 11:07:09;;;;;;;6.50;1.80;;;;;;;24.80;27.82;102476.23;103874;1305;22563;-61
2024/04/11 11:09:42;;;;;;;1.80;1.30;;;;;;;25.48;27.83;102473.21;103500;1297;22563;-61
2024/04/11 11:12:11;;;;;;;3.00;1.80;;;;;;;25.84;26.36;102474.39;103558;1291;22686;-62
2024/04/11 11:14:37;;;;;;;6.30;1.60;;;;;;;26.04;26.45;102472.67;103582;1301;22593;-62
2024/04/11 11:17:07;;;;;;;5.10;1.50;;;;;;;25.89;26.38;102468.83;103514;1295;22717;-63
2024/04/11 11:19:34;;;;;;;2.80;1.70;;;;;;;26.09;26.57;102466.20;103567;1298;22583;-62
2024/04/11 11:22:00;;;;;;;3.70;1.70;;;;;;;26.02;26.35;102472.75;103638;1309;22577;-62
2024/04/11 11:24:28;;;;;;;2.90;1.50;;;;;;;25.69;26.07;102462.61;103571;1310;22584;-62
2024/04/11 11:27:01;;;;;;;2.50;1.50;;;;;;;25.77;26.72;102460.61;103571;1310;23902;-62
2024/04/11 11:29:28;;;;;;;1.60;1.30;;;;;;;26.20;26.38;102456.41;103656;1310;22561;-61